• Join FlightAware (Why Join?)
  • Login
  • US Flag 
04:05AM EDT


 

Airport Tracker/Info


-or-


 

Live Flight TrackerFlight Track Log ✈ N421VA ✈ 17-Nov-2013 ✈ KMGW - KPMH

Flight Track Log - Related Links

Times and Time Zones

All times are in EST time to prevent confusion due to time zone crossing. See the N421VA flight status page for this flight to view local times or setup timezone preferences in your user account.

Time Position Orientation Groundspeed Altitude Reporting Facility
EST Latitude Longitude Course Direction KTS MPH feet Rate Location/Type
09:00AM 39.6069 -79.9839 250° West 99 114 4,100  Level Cleveland Center
09:01AM 39.5994 -80.0167 253° West 98 113 4,800 660 Climbing Cleveland Center
09:02AM 39.5889 -80.0464 245° Southwest 95 109 5,500 660 Climbing Cleveland Center
09:03AM 39.5769 -80.0778 244° Southwest 95 109 6,200 600 Climbing Cleveland Center
09:04AM 39.5733 -80.1880 253° West  Level Estimated
09:04AM 39.5667 -80.1119 249° West 98 113 6,800  Level Cleveland Center
09:05AM 39.5583 -80.2416 250° West  Level FlightAware Approximate
09:05AM 39.5586 -80.1378 248° West 111 128 7,200  Level Indianapolis Center
09:06AM 39.5508 -80.1781 256° West 113 130 7,900 360 Climbing Indianapolis Center
09:07AM 39.5400 -80.2194 251° West 117 135 8,000  Climbing Indianapolis Center
09:08AM 39.5311 -80.2694 257° West 129 148 8,000  Level Indianapolis Center
09:09AM 39.5208 -80.3186 255° West 136 157 8,000  Level Indianapolis Center
09:10AM 39.5086 -80.3683 252° West 141 162 8,000  Level Indianapolis Center
09:11AM 39.4953 -80.4164 250° West 143 165 8,000  Level Indianapolis Center
09:12AM 39.4806 -80.4644 248° West 143 165 8,000  Level Indianapolis Center
09:13AM 39.4681 -80.5147 252° West 144 166 8,000  Level Indianapolis Center
09:14AM 39.4558 -80.5644 252° West 145 167 8,000  Level Indianapolis Center
09:15AM 39.4428 -80.6147 251° West 146 168 8,000  Level Indianapolis Center
09:16AM 39.4267 -80.6761 251° West 148 170 8,000  Level Indianapolis Center
09:17AM 39.4128 -80.7286 251° West 151 174 8,000  Level Indianapolis Center
09:18AM 39.3986 -80.7817 251° West 154 177 8,000  Level Indianapolis Center
09:19AM 39.3844 -80.8356 251° West 156 180 8,000  Level Indianapolis Center
09:20AM 39.3714 -80.8889 252° West 156 180 8,000  Level Indianapolis Center
09:21AM 39.3581 -80.9422 252° West 156 180 8,000  Level Indianapolis Center
09:22AM 39.3436 -80.9933 250° West 154 177 8,000  Level Indianapolis Center
09:23AM 39.3292 -81.0458 250° West 154 177 8,000  Level Indianapolis Center
09:24AM 39.3150 -81.0997 251° West 157 181 8,000  Level Indianapolis Center
09:25AM 39.3008 -81.1525 251° West 156 180 8,000  Level Indianapolis Center
09:26AM 39.2878 -81.2047 252° West 154 177 8,000  Level Indianapolis Center
09:27AM 39.2742 -81.2561 251° West 152 175 8,000  Level Indianapolis Center
09:28AM 39.2578 -81.3189 251° West 153 176 8,000  Level Indianapolis Center
09:29AM 39.2450 -81.3711 252° West 154 177 8,000  Level Indianapolis Center
09:30AM 39.2333 -81.4256 255° West 156 180 8,000  Level Indianapolis Center
09:31AM 39.2203 -81.4758 251° West 151 174 8,000  Level Indianapolis Center
09:33AM 39.2072 -81.5261 251° West 149 171 8,000  Level Indianapolis Center
09:34AM 39.1911 -81.5764 248° West 150 173 8,000  Level Indianapolis Center
09:35AM 39.1769 -81.6283 251° West 152 175 8,000  Level Indianapolis Center
09:36AM 39.1628 -81.6786 250° West 151 174 8,000  Level Indianapolis Center
09:37AM 39.1483 -81.7283 249° West 148 170 8,000  Level Indianapolis Center
09:38AM 39.1322 -81.7886 251° West 148 170 8,000  Level Indianapolis Center
09:39AM 39.1181 -81.8406 251° West 153 176 8,000 -300 Level Indianapolis Center
09:40AM 39.1028 -81.8964 251° West 163 188 7,500 -420 Descending Indianapolis Center
09:41AM 39.0875 -81.9553 252° West 171 197 7,200 -480 Descending Indianapolis Center
09:42AM 39.0722 -82.0136 251° West 172 198 6,600 -540 Descending Indianapolis Center
09:43AM 39.0589 -82.0706 253° West 169 194 6,200 -480 Descending Indianapolis Center
09:44AM 39.0467 -82.1225 253° West 158 182 5,700 -540 Descending Indianapolis Center
09:45AM 39.0339 -82.1731 252° West 150 173 5,200 -600 Descending Indianapolis Center
09:46AM 39.0192 -82.2228 249° West 149 171 4,500 -600 Descending Indianapolis Center
09:47AM 39.0033 -82.2733 248° West 151 174 4,000 -300 Descending Indianapolis Center
09:48AM 38.9867 -82.3303 249° West 145 167 4,000  Level Indianapolis Center
09:49AM 38.9867 -82.3811 270° West 143 165 4,000  Level Indianapolis Center
09:50AM 38.9822 -82.4297 263° West 138 159 4,000 -300 Level Indianapolis Center
09:51AM 38.9761 -82.4825 262° West 144 166 3,500 -360 Descending Indianapolis Center
09:52AM 38.9722 -82.5414 265° West 158 182 3,300 -300 Descending Indianapolis Center
09:53AM 38.9672 -82.6003 264° West 164 189 3,000 -180 Descending Indianapolis Center
09:54AM 38.9617 -82.6608 263° West 168 193 3,000  Level Indianapolis Center
09:55AM 38.9569 -82.7233 264° West 166 191 3,000  Level Indianapolis Center